Time;durP1;ratioP1;P1;durP2;ratioP2;P2;SDS_P1;SDS_P2;PMS_P1;PMS_P2;Temp;Humidity;BMP_temperature;BMP_pressure;BME280_temperature;BME280_humidity;BME280_pressure;Samples;Min_cycle;Max_cycle;Signal;HPM_P1;HPM_P2
2024/03/14 00:00:18;;;;;;;11.90;5.20;;;;;;;6.64;50.37;100773.34;105020;1255;59629;-67
2024/03/14 00:02:47;;;;;;;14.50;5.40;;;;;;;6.68;50.12;100775.17;105186;1253;64121;-65
2024/03/14 00:05:15;;;;;;;13.00;5.60;;;;;;;6.70;50.03;100778.22;105281;1253;61073;-66
2024/03/14 00:07:44;;;;;;;14.10;4.80;;;;;;;6.72;49.94;100772.58;105403;1254;63741;-66
2024/03/14 00:10:11;;;;;;;13.70;5.20;;;;;;;6.73;49.88;100770.40;105412;1254;59803;-65
2024/03/14 00:12:39;;;;;;;11.70;5.60;;;;;;;6.70;49.76;100768.46;105458;1255;59628;-66
2024/03/14 00:15:11;;;;;;;8.00;4.70;;;;;;;6.69;49.71;100764.52;105220;1254;64302;-68
2024/03/14 00:17:39;;;;;;;9.10;4.30;;;;;;;6.70;49.55;100765.48;105004;1254;72821;-68
2024/03/14 00:20:11;;;;;;;10.80;4.60;;;;;;;6.70;49.44;100762.57;104972;1254;63955;-65
2024/03/14 00:22:39;;;;;;;10.30;5.60;;;;;;;6.70;49.44;100755.04;108866;1253;57713;-65
2024/03/14 00:25:09;;;;;;;12.70;5.00;;;;;;;6.71;49.41;100750.11;105079;1256;59563;-65
2024/03/14 00:27:38;;;;;;;10.00;4.90;;;;;;;6.70;49.34;100746.48;105161;1253;62871;-66
2024/03/14 00:30:09;;;;;;;12.50;6.30;;;;;;;6.68;49.31;100746.27;105133;1255;60133;-65
2024/03/14 00:32:37;;;;;;;10.30;5.30;;;;;;;6.66;49.33;100753.91;105181;1255;62458;-65
2024/03/14 00:35:06;;;;;;;14.00;6.20;;;;;;;6.64;49.39;100757.50;105480;1254;59736;-66
2024/03/14 00:37:35;;;;;;;13.40;5.10;;;;;;;6.62;49.46;100754.32;105714;1254;59746;-65
2024/03/14 00:40:03;;;;;;;14.10;5.90;;;;;;;6.59;49.64;100757.76;105201;1254;64124;-67
2024/03/14 00:42:31;;;;;;;12.20;5.60;;;;;;;6.60;49.64;100757.40;105263;1254;60289;-67
2024/03/14 00:44:59;;;;;;;12.20;5.80;;;;;;;6.60;49.63;100757.02;105241;1255;62577;-67
2024/03/14 00:47:27;;;;;;;13.60;6.90;;;;;;;6.61;49.70;100754.71;105292;1253;60560;-64
2024/03/14 00:49:54;;;;;;;28.00;7.30;;;;;;;6.61;49.67;100755.24;105329;1258;60453;-68
2024/03/14 00:52:22;;;;;;;12.50;5.90;;;;;;;6.59;49.68;100759.85;106027;1254;63730;-68
2024/03/14 00:54:50;;;;;;;13.90;6.30;;;;;;;6.59;49.64;100761.11;105126;1253;70468;-68
2024/03/14 00:57:18;;;;;;;11.50;6.00;;;;;;;6.56;49.61;100758.48;105268;1253;64246;-68
2024/03/14 00:59:46;;;;;;;10.50;5.50;;;;;;;6.53;49.70;100758.98;106100;1254;60470;-65
2024/03/14 01:02:14;;;;;;;13.50;5.80;;;;;;;6.48;49.86;100757.88;105107;1258;60435;-65
2024/03/14 01:04:43;;;;;;;10.80;5.80;;;;;;;6.42;49.86;100754.34;105268;1253;65357;-67
2024/03/14 01:07:11;;;;;;;11.80;6.00;;;;;;;6.38;49.94;100753.89;105375;1255;61531;-66
2024/03/14 01:09:39;;;;;;;14.80;6.40;;;;;;;6.32;49.99;100751.08;105335;1254;63846;-66
2024/03/14 01:12:07;;;;;;;10.20;6.00;;;;;;;6.26;50.06;100748.33;105216;1253;60461;-65
2024/03/14 01:14:35;;;;;;;14.10;6.20;;;;;;;6.18;50.22;100741.95;105282;1254;60423;-67
2024/03/14 01:17:03;;;;;;;15.00;7.20;;;;;;;6.11;50.39;100741.65;105393;1253;63635;-66
2024/03/14 01:19:32;;;;;;;8.80;5.20;;;;;;;6.05;50.67;100736.07;105591;1255;60931;-65
2024/03/14 01:21:59;;;;;;;10.70;5.60;;;;;;;5.98;50.81;100735.40;105114;1254;63728;-65
2024/03/14 01:24:27;;;;;;;12.90;6.70;;;;;;;5.93;50.95;100733.21;105162;1254;60528;-65
2024/03/14 01:26:55;;;;;;;9.20;5.30;;;;;;;5.89;51.07;100735.00;105172;1259;60511;-65
2024/03/14 01:29:25;;;;;;;11.80;5.60;;;;;;;5.86;51.20;100736.36;105790;1254;64951;-67
2024/03/14 01:31:52;;;;;;;12.50;5.40;;;;;;;5.89;51.12;100738.63;105792;1254;61474;-68
2024/03/14 01:34:20;;;;;;;10.00;4.90;;;;;;;5.96;50.97;100742.14;105288;1254;63827;-67
2024/03/14 01:36:48;;;;;;;13.00;4.70;;;;;;;6.03;50.90;100740.02;105192;1253;61634;-66
2024/03/14 01:39:16;;;;;;;10.30;5.00;;;;;;;6.08;50.88;100741.61;105296;1253;60478;-64
2024/03/14 01:41:45;;;;;;;11.90;5.10;;;;;;;6.11;50.37;100745.30;105155;1260;75827;-67
2024/03/14 01:44:13;;;;;;;11.70;5.50;;;;;;;6.12;50.01;100745.79;105434;1253;61402;-66
2024/03/14 01:46:40;;;;;;;8.50;4.70;;;;;;;6.12;49.87;100745.27;105278;1259;62455;-67
2024/03/14 01:49:08;;;;;;;14.50;5.40;;;;;;;6.10;49.69;100744.83;105172;1258;60462;-66
2024/03/14 01:51:36;;;;;;;10.10;4.50;;;;;;;6.08;49.38;100744.80;105250;1258;60432;-61
2024/03/14 01:54:03;;;;;;;12.30;5.90;;;;;;;6.04;49.43;100741.87;105210;1254;64929;-65
2024/03/14 01:56:31;;;;;;;14.40;4.70;;;;;;;6.01;49.53;100741.19;105633;1254;60568;-68
2024/03/14 01:58:58;;;;;;;12.80;6.00;;;;;;;5.97;49.55;100740.85;105205;1254;65204;-69
2024/03/14 02:01:27;;;;;;;14.70;5.00;;;;;;;5.94;49.61;100743.23;105520;1253;60483;-66
2024/03/14 02:04:07;;;;;;;9.60;4.60;;;;;;;5.91;49.66;100739.07;106090;1253;60441;-66
2024/03/14 02:06:39;;;;;;;8.70;4.40;;;;;;;5.87;49.73;100738.23;106308;1254;63726;-67
2024/03/14 02:09:08;;;;;;;15.80;10.10;;;;;;;5.86;49.91;100737.61;105941;1260;60495;-65
2024/03/14 02:11:35;;;;;;;13.20;4.90;;;;;;;5.85;49.96;100736.80;106051;1253;66224;-66
2024/03/14 02:14:03;;;;;;;12.30;4.60;;;;;;;5.83;49.93;100740.38;106121;1254;60537;-65
2024/03/14 02:16:30;;;;;;;10.90;4.20;;;;;;;5.82;49.84;100739.61;106046;1253;60436;-66
2024/03/14 02:18:58;;;;;;;10.30;4.80;;;;;;;5.81;49.77;100741.86;106088;1253;73025;-65
2024/03/14 02:21:26;;;;;;;11.30;5.80;;;;;;;5.81;49.85;100741.90;106037;1253;61524;-66
2024/03/14 02:23:54;;;;;;;10.00;4.20;;;;;;;5.80;49.90;100741.58;105993;1258;64187;-66
2024/03/14 02:26:22;;;;;;;9.30;4.10;;;;;;;5.79;49.80;100741.11;106035;1259;60354;-64
2024/03/14 02:28:50;;;;;;;12.70;6.40;;;;;;;5.77;49.80;100738.58;106207;1258;60397;-63
2024/03/14 02:31:17;;;;;;;11.70;5.40;;;;;;;5.75;49.63;100738.02;105371;1256;64837;-67
2024/03/14 02:33:45;;;;;;;15.20;5.10;;;;;;;5.73;49.44;100739.36;106035;1253;60472;-68
2024/03/14 02:36:13;;;;;;;11.00;6.20;;;;;;;5.69;49.43;100737.45;105994;1254;63766;-68
2024/03/14 02:38:40;;;;;;;11.70;4.90;;;;;;;5.65;49.42;100738.02;105955;1256;60404;-68
2024/03/14 02:41:08;;;;;;;10.10;4.30;;;;;;;5.62;49.58;100737.51;105893;1255;60541;-68
2024/03/14 02:43:36;;;;;;;14.20;5.40;;;;;;;5.59;49.57;100739.21;105849;1254;64883;-68
2024/03/14 02:46:04;;;;;;;9.60;4.40;;;;;;;5.57;49.50;100740.92;106191;1256;61329;-65
2024/03/14 02:48:33;;;;;;;12.20;4.60;;;;;;;5.55;49.34;100744.66;106003;1255;63709;-65
2024/03/14 02:51:01;;;;;;;12.20;4.30;;;;;;;5.54;49.20;100744.35;105887;1261;60611;-67
2024/03/14 02:53:29;;;;;;;11.70;5.10;;;;;;;5.52;49.09;100742.16;105960;1256;60607;-66
2024/03/14 02:55:57;;;;;;;13.00;5.50;;;;;;;5.51;48.92;100737.91;105917;1260;64939;-65
2024/03/14 02:58:25;;;;;;;10.00;4.00;;;;;;;5.49;49.00;100735.38;105996;1255;60455;-67
2024/03/14 03:00:53;;;;;;;9.50;4.10;;;;;;;5.47;49.14;100735.14;105885;1260;63776;-65
2024/03/14 03:03:22;;;;;;;9.30;3.60;;;;;;;5.47;49.26;100732.73;105984;1256;60570;-64
2024/03/14 03:05:50;;;;;;;11.00;4.60;;;;;;;5.48;49.09;100727.81;106460;1257;60473;-65
2024/03/14 03:08:18;;;;;;;7.70;4.00;;;;;;;5.47;49.05;100726.45;105897;1254;64904;-64
2024/03/14 03:10:46;;;;;;;13.70;4.90;;;;;;;5.43;48.88;100725.26;105382;1255;61416;-66
2024/03/14 03:13:14;;;;;;;10.50;4.40;;;;;;;5.43;48.95;100726.00;106047;1257;64731;-67
2024/03/14 03:15:42;;;;;;;11.90;5.50;;;;;;;5.40;49.19;100725.95;105940;1256;62375;-66
2024/03/14 03:18:10;;;;;;;8.80;4.70;;;;;;;5.39;49.11;100724.23;105947;1255;60401;-65
2024/03/14 03:20:38;;;;;;;10.80;5.80;;;;;;;5.38;49.24;100722.38;106265;1254;64925;-67
2024/03/14 03:23:09;;;;;;;12.50;4.50;;;;;;;5.39;49.17;100723.74;106212;1258;60157;-68
2024/03/14 03:25:37;;;;;;;7.10;3.20;;;;;;;5.39;49.25;100725.79;106031;1258;62543;-68
2024/03/14 03:28:10;;;;;;;9.70;5.00;;;;;;;5.40;49.30;100729.42;105882;1257;60504;-69
2024/03/14 03:30:38;;;;;;;10.40;4.00;;;;;;;5.37;49.24;100728.18;105457;1255;60391;-68
2024/03/14 03:33:11;;;;;;;8.50;3.50;;;;;;;5.36;49.16;100731.21;105671;1256;63718;-66
2024/03/14 03:35:41;;;;;;;14.10;4.60;;;;;;;5.34;49.26;100732.52;105338;1259;60430;-66
2024/03/14 03:38:09;;;;;;;14.10;4.60;;;;;;;5.34;49.28;100732.53;106067;1254;64299;-65
2024/03/14 03:40:37;;;;;;;11.90;5.10;;;;;;;5.35;49.20;100731.27;105183;1256;62121;-67
2024/03/14 03:43:04;;;;;;;9.50;3.90;;;;;;;5.34;49.12;100734.25;105126;1256;60563;-67
2024/03/14 03:45:32;;;;;;;12.70;4.90;;;;;;;5.33;49.17;100731.55;105228;1260;64879;-67
2024/03/14 03:48:00;;;;;;;9.00;4.60;;;;;;;5.31;49.32;100725.73;104933;1257;60269;-68
2024/03/14 03:50:28;;;;;;;10.30;4.20;;;;;;;5.30;49.28;100723.52;105619;1257;62546;-68
2024/03/14 03:52:56;;;;;;;13.10;6.00;;;;;;;5.29;49.26;100724.41;105564;1255;60538;-64
2024/03/14 03:55:25;;;;;;;9.10;4.80;;;;;;;5.28;49.29;100726.75;105009;1256;60458;-65
2024/03/14 03:57:52;;;;;;;12.00;3.40;;;;;;;5.29;49.36;100728.42;106685;1254;63685;-66
2024/03/14 04:00:41;;;;;;;11.20;4.50;;;;;;;5.32;49.36;100727.25;105232;1261;60486;-66
2024/03/14 04:03:11;;;;;;;7.30;3.50;;;;;;;5.35;49.38;100721.48;105116;1256;62641;-66
2024/03/14 04:05:39;;;;;;;10.10;4.20;;;;;;;5.38;49.40;100718.06;105488;1256;60419;-66
2024/03/14 04:08:07;;;;;;;10.70;5.00;;;;;;;5.39;49.36;100719.91;105120;1259;60445;-70
2024/03/14 04:10:35;;;;;;;10.60;3.40;;;;;;;5.39;49.36;100720.23;105192;1255;65403;-69
2024/03/14 04:13:04;;;;;;;10.90;4.50;;;;;;;5.41;49.41;100725.75;105185;1260;60414;-67
2024/03/14 04:15:33;;;;;;;9.60;4.60;;;;;;;5.42;49.42;100731.42;105547;1256;63716;-66
2024/03/14 04:18:05;;;;;;;8.30;3.90;;;;;;;5.43;49.32;100735.73;105436;1256;60530;-67
2024/03/14 04:20:37;;;;;;;8.10;3.90;;;;;;;5.42;49.33;100740.11;105558;1260;60348;-66
2024/03/14 04:23:06;;;;;;;8.50;3.90;;;;;;;5.44;49.19;100743.18;105236;1261;65002;-66
2024/03/14 04:25:34;;;;;;;8.00;4.10;;;;;;;5.43;49.07;100743.02;105152;1256;60587;-65
2024/03/14 04:28:02;;;;;;;6.20;3.40;;;;;;;5.43;49.26;100743.02;105009;1259;66281;-65
2024/03/14 04:30:31;;;;;;;12.80;5.50;;;;;;;5.44;49.19;100747.15;106035;1260;60552;-64
2024/03/14 04:32:59;;;;;;;11.60;4.80;;;;;;;5.45;49.27;100748.14;105519;1257;60352;-63
2024/03/14 04:35:27;;;;;;;10.10;5.00;;;;;;;5.46;49.15;100747.39;106269;1256;64987;-65
2024/03/14 04:37:55;;;;;;;11.90;3.70;;;;;;;5.47;49.30;100750.84;104876;1256;61886;-65
2024/03/14 04:40:23;;;;;;;9.50;3.90;;;;;;;5.48;49.30;100755.65;105059;1257;64374;-65
2024/03/14 04:42:53;;;;;;;9.90;4.00;;;;;;;5.49;49.34;100753.84;104966;1257;60566;-65
2024/03/14 04:45:21;;;;;;;10.50;4.00;;;;;;;5.50;49.39;100757.27;105128;1260;59584;-65
2024/03/14 04:47:50;;;;;;;10.30;4.20;;;;;;;5.51;49.43;100760.52;104939;1256;63702;-66
2024/03/14 04:50:19;;;;;;;11.20;3.70;;;;;;;5.52;49.52;100757.70;105541;1255;61464;-67
2024/03/14 04:52:48;;;;;;;9.00;4.60;;;;;;;5.51;49.69;100765.39;105012;1256;63970;-68
2024/03/14 04:55:17;;;;;;;9.60;3.70;;;;;;;5.51;49.91;100769.40;105088;1256;60999;-65
2024/03/14 04:57:45;;;;;;;9.50;3.20;;;;;;;5.53;50.04;100772.08;105063;1260;61693;-64
2024/03/14 05:02:51;;;;;;;9.10;3.60;;;;;;;5.57;50.15;100769.23;105193;1259;61999;-64
2024/03/14 05:05:21;;;;;;;9.10;3.70;;;;;;;5.60;50.26;100777.81;106080;1257;62482;-68
2024/03/14 05:07:50;;;;;;;10.30;3.70;;;;;;;5.62;50.27;100778.06;105798;1256;59317;-65
2024/03/14 05:10:21;;;;;;;8.60;4.00;;;;;;;5.64;50.20;100779.14;105239;1260;60369;-60
2024/03/14 05:12:49;;;;;;;8.30;3.70;;;;;;;5.66;50.25;100780.61;107434;1256;63833;-64
2024/03/14 05:15:17;;;;;;;8.70;3.40;;;;;;;5.68;50.46;100782.61;105102;1256;61393;-67
2024/03/14 05:17:47;;;;;;;8.60;2.90;;;;;;;5.70;50.73;100785.45;104940;1255;62614;-66
2024/03/14 05:20:16;;;;;;;6.80;3.70;;;;;;;5.75;51.02;100786.06;105274;1256;60915;-67
2024/03/14 05:22:44;;;;;;;7.80;2.80;;;;;;;5.82;51.52;100792.68;104965;1260;59109;-65
2024/03/14 05:25:12;;;;;;;13.40;7.30;;;;;;;5.84;51.92;100794.98;105907;1256;63722;-65
2024/03/14 05:27:47;;;;;;;6.60;2.50;;;;;;;5.85;52.36;100795.28;105967;1256;61432;-62
2024/03/14 05:30:18;;;;;;;8.00;3.30;;;;;;;5.86;52.74;100799.23;104936;1256;62517;-61
2024/03/14 05:32:46;;;;;;;7.10;3.40;;;;;;;5.84;53.12;100801.58;104924;1256;60734;-68
2024/03/14 05:35:14;;;;;;;8.90;3.40;;;;;;;5.82;53.60;100797.36;104867;1260;60461;-59
2024/03/14 05:37:42;;;;;;;10.50;4.80;;;;;;;5.82;54.07;100794.77;105875;1256;63727;-61
2024/03/14 05:40:10;;;;;;;11.10;4.00;;;;;;;5.83;54.40;100797.27;104848;1260;61497;-61
2024/03/14 05:42:39;;;;;;;11.80;4.80;;;;;;;5.84;54.65;100796.04;106057;1254;62511;-58
2024/03/14 05:45:08;;;;;;;8.70;4.30;;;;;;;5.84;54.82;100795.35;106020;1256;61545;-59
2024/03/14 05:47:38;;;;;;;7.00;4.20;;;;;;;5.84;55.09;100799.17;108918;1254;58404;-57
2024/03/14 05:50:09;;;;;;;10.60;4.30;;;;;;;5.83;55.12;100797.85;108630;1254;63658;-58
2024/03/14 05:52:41;;;;;;;10.90;5.40;;;;;;;5.79;55.33;100799.97;105250;1258;60418;-58
2024/03/14 05:55:09;;;;;;;12.50;4.90;;;;;;;5.75;55.68;100799.29;105000;1256;63770;-58
2024/03/14 05:57:38;;;;;;;9.50;3.90;;;;;;;5.74;55.97;100800.54;108817;1254;58496;-59
2024/03/14 06:00:11;;;;;;;7.80;3.80;;;;;;;5.79;55.95;100800.31;109022;1254;58193;-62
2024/03/14 06:02:41;;;;;;;8.40;3.70;;;;;;;5.87;55.92;100800.41;108975;1254;64986;-60
2024/03/14 06:05:09;;;;;;;10.80;4.70;;;;;;;5.96;56.04;100799.93;108934;1257;63620;-66
2024/03/14 06:07:38;;;;;;;7.50;3.90;;;;;;;6.06;56.05;100795.73;108958;1254;65914;-68
2024/03/14 06:10:08;;;;;;;8.90;3.80;;;;;;;6.16;55.89;100796.77;107849;1256;60461;-67
2024/03/14 06:12:39;;;;;;;8.40;4.40;;;;;;;6.22;55.86;100797.84;105521;1256;60423;-60
2024/03/14 06:15:08;;;;;;;9.50;5.20;;;;;;;6.24;56.02;100800.50;105127;1258;67144;-67
2024/03/14 06:17:37;;;;;;;10.40;4.90;;;;;;;6.27;56.12;100798.08;105352;1254;60469;-68
2024/03/14 06:20:09;;;;;;;15.60;11.50;;;;;;;6.27;56.10;100797.36;105237;1256;62490;-66
2024/03/14 06:22:39;;;;;;;11.20;5.60;;;;;;;6.24;56.10;100799.63;105475;1258;60562;-71
2024/03/14 06:25:10;;;;;;;12.30;4.90;;;;;;;6.22;56.22;100803.75;105462;1256;60461;-67
2024/03/14 06:27:39;;;;;;;11.80;5.60;;;;;;;6.18;56.26;100801.02;104855;1258;76087;-68
2024/03/14 06:30:11;;;;;;;13.60;6.30;;;;;;;6.14;56.41;100809.58;108969;1258;72600;-66
2024/03/14 06:32:47;;;;;;;14.10;5.90;;;;;;;6.10;56.36;100811.53;108921;1256;65774;-68
2024/03/14 06:35:15;;;;;;;15.60;7.20;;;;;;;6.07;56.39;100814.15;109056;1256;62167;-68
2024/03/14 06:37:44;;;;;;;12.20;5.90;;;;;;;6.06;56.45;100807.78;108914;1254;61076;-64
2024/03/14 06:40:14;;;;;;;14.20;7.60;;;;;;;6.04;56.42;100816.22;108925;1254;67043;-70
2024/03/14 06:42:45;;;;;;;12.70;7.20;;;;;;;6.02;56.44;100813.39;105258;1256;72619;-64
2024/03/14 06:45:13;;;;;;;10.30;5.50;;;;;;;6.00;56.59;100813.81;105143;1261;74843;-62
2024/03/14 06:47:43;;;;;;;11.40;5.90;;;;;;;5.98;56.68;100809.44;104999;1260;60532;-60
2024/03/14 06:50:14;;;;;;;12.70;7.20;;;;;;;5.98;56.87;100818.99;106114;1260;60614;-61
2024/03/14 06:52:43;;;;;;;13.80;5.30;;;;;;;6.04;56.93;100813.42;105014;1258;74172;-62
2024/03/14 06:55:12;;;;;;;14.00;5.80;;;;;;;6.11;56.77;100813.90;105291;1261;61098;-62
2024/03/14 06:57:44;;;;;;;14.00;5.40;;;;;;;6.19;56.60;100817.55;106056;1256;75155;-63
2024/03/14 07:00:12;;;;;;;13.40;6.40;;;;;;;6.24;56.39;100813.92;105943;1260;60567;-62
2024/03/14 07:02:40;;;;;;;15.50;7.40;;;;;;;6.30;56.30;100813.27;105752;1256;60656;-60
2024/03/14 07:05:09;;;;;;;16.60;7.10;;;;;;;6.32;56.17;100813.66;105979;1260;76058;-60
2024/03/14 07:07:36;;;;;;;15.10;6.20;;;;;;;6.31;56.18;100818.23;105001;1256;72992;-60
2024/03/14 07:10:08;;;;;;;13.60;6.90;;;;;;;6.34;56.20;100818.59;105217;1259;63138;-60
2024/03/14 07:12:36;;;;;;;15.10;7.00;;;;;;;6.34;55.88;100821.94;106198;1258;60480;-62
2024/03/14 07:15:05;;;;;;;13.10;6.40;;;;;;;6.28;55.76;100825.36;104914;1256;61021;-60
2024/03/14 07:17:36;;;;;;;12.30;7.10;;;;;;;6.21;55.68;100830.98;105428;1256;65053;-61
2024/03/14 07:20:10;;;;;;;12.50;6.70;;;;;;;6.15;55.81;100833.90;105344;1256;61939;-60
2024/03/14 07:22:39;;;;;;;11.10;6.90;;;;;;;6.11;55.81;100836.08;105182;1258;64720;-61
2024/03/14 07:25:12;;;;;;;15.60;6.40;;;;;;;6.10;56.13;100837.36;105373;1258;60441;-60
2024/03/14 07:27:40;;;;;;;12.10;6.60;;;;;;;6.12;56.14;100835.50;105336;1261;61377;-60
2024/03/14 07:30:13;;;;;;;15.40;7.70;;;;;;;6.12;56.19;100841.55;105327;1256;76048;-60
2024/03/14 07:32:42;;;;;;;18.50;8.20;;;;;;;6.12;55.89;100843.14;105353;1259;60673;-61
2024/03/14 07:35:10;;;;;;;14.30;6.00;;;;;;;6.09;55.63;100844.66;105474;1260;62581;-59
2024/03/14 07:37:47;;;;;;;14.50;8.40;;;;;;;6.12;55.59;100841.92;105261;1256;61926;-63
2024/03/14 07:40:16;;;;;;;13.70;5.90;;;;;;;6.17;55.66;100844.10;105949;1256;60503;-61
2024/03/14 07:42:46;;;;;;;12.00;7.40;;;;;;;6.24;55.92;100845.78;105059;1256;65306;-61
2024/03/14 07:45:17;;;;;;;12.80;7.00;;;;;;;6.31;56.05;100846.45;105295;1256;63500;-60
2024/03/14 07:47:52;;;;;;;14.10;7.80;;;;;;;6.38;56.00;100849.60;105084;1256;73613;-60
2024/03/14 07:50:22;;;;;;;14.80;6.70;;;;;;;6.44;55.66;100846.83;105739;1255;61595;-61
2024/03/14 07:52:51;;;;;;;17.30;7.30;;;;;;;6.48;55.75;100846.79;105206;1258;60340;-66
2024/03/14 07:55:18;;;;;;;15.90;7.70;;;;;;;6.51;55.61;100846.95;104879;1256;75726;-66
2024/03/14 07:57:46;;;;;;;12.80;5.90;;;;;;;6.52;55.45;100844.95;104800;1256;61615;-61
2024/03/14 08:00:21;;;;;;;15.70;8.30;;;;;;;6.51;55.38;100841.89;105027;1256;65888;-61
2024/03/14 08:02:54;;;;;;;11.00;5.20;;;;;;;6.51;55.42;100842.77;105826;1256;60424;-61
2024/03/14 08:05:25;;;;;;;15.70;6.90;;;;;;;6.53;55.56;100843.52;105711;1254;60552;-61
2024/03/14 08:07:54;;;;;;;14.30;6.90;;;;;;;6.51;54.95;100848.33;109006;1255;75666;-60
2024/03/14 08:10:39;;;;;;;16.80;8.90;;;;;;;6.50;54.67;100846.83;109022;1254;60390;-63
2024/03/14 08:13:07;;;;;;;13.30;6.40;;;;;;;6.57;54.47;100847.14;106260;1261;75853;-69
2024/03/14 08:15:41;;;;;;;12.60;6.70;;;;;;;6.63;54.45;100846.60;105962;1260;61025;-63
2024/03/14 08:18:11;;;;;;;16.70;6.90;;;;;;;6.71;54.65;100845.49;105975;1260;60460;-66
2024/03/14 08:20:40;;;;;;;13.00;7.40;;;;;;;6.84;54.28;100847.88;106855;1254;76882;-63
2024/03/14 08:23:08;;;;;;;15.30;6.70;;;;;;;6.96;53.96;100844.44;106148;1256;64201;-67
2024/03/14 08:25:37;;;;;;;14.80;7.40;;;;;;;7.05;53.56;100839.33;105988;1255;75289;-59
2024/03/14 08:28:06;;;;;;;18.90;7.00;;;;;;;7.15;53.37;100841.20;105431;1255;62053;-62
2024/03/14 08:30:39;;;;;;;11.90;5.70;;;;;;;7.22;52.44;100842.20;105068;1256;60450;-58
2024/03/14 08:33:09;;;;;;;12.50;6.80;;;;;;;7.19;50.86;100841.70;109008;1255;63758;-61
2024/03/14 08:35:42;;;;;;;15.30;8.60;;;;;;;7.08;50.82;100841.12;109117;1256;72129;-63
2024/03/14 08:38:13;;;;;;;14.00;7.50;;;;;;;7.02;51.04;100840.55;108789;1255;62693;-63
2024/03/14 08:40:42;;;;;;;13.70;7.50;;;;;;;7.02;51.10;100842.31;106876;1256;60419;-60
2024/03/14 08:43:11;;;;;;;11.50;6.60;;;;;;;7.05;50.96;100845.14;106000;1254;62309;-60
2024/03/14 08:45:39;;;;;;;11.20;5.90;;;;;;;7.06;50.84;100839.14;105313;1254;66107;-68
2024/03/14 08:48:08;;;;;;;12.60;7.00;;;;;;;7.01;50.75;100840.98;108965;1256;61605;-67
2024/03/14 08:50:40;;;;;;;12.60;6.80;;;;;;;6.98;51.00;100835.76;108887;1254;184620;-65
2024/03/14 09:06:01;;;;;;;12.80;7.00;;;;;;;7.35;51.08;100841.33;105549;1264;604456;-60
2024/03/14 09:08:30;;;;;;;16.30;13.00;;;;;;;8.17;49.13;100839.65;109249;1247;220080;-61
2024/03/14 09:10:58;;;;;;;11.10;5.80;;;;;;;8.18;48.13;100844.28;107665;1241;60925;-62
2024/03/14 09:13:30;;;;;;;17.10;13.30;;;;;;;8.16;48.10;100846.34;107848;1241;63431;-62
2024/03/14 09:15:57;;;;;;;16.30;7.40;;;;;;;8.15;48.01;100845.34;107824;1241;61457;-59
2024/03/14 09:18:25;;;;;;;10.80;5.90;;;;;;;8.16;48.14;100845.29;109602;1237;65231;-59
2024/03/14 09:20:55;;;;;;;17.20;13.50;;;;;;;8.18;47.95;100845.86;108754;1237;59261;-62
2024/03/14 09:23:25;;;;;;;14.20;6.60;;;;;;;8.19;48.08;100844.71;110363;1235;59258;-63
2024/03/14 09:25:52;;;;;;;15.50;12.20;;;;;;;8.20;47.79;100845.89;108697;1233;73164;-64
2024/03/14 09:28:19;;;;;;;11.40;6.30;;;;;;;8.18;47.35;100843.39;109522;1237;61539;-64
2024/03/14 09:30:46;;;;;;;8.50;5.00;;;;;;;8.17;47.05;100846.23;108639;1238;64033;-63
2024/03/14 09:33:13;;;;;;;15.60;12.50;;;;;;;8.15;46.86;100842.90;108423;1241;59561;-63
2024/03/14 09:35:48;;;;;;;11.20;5.70;;;;;;;8.06;46.55;100842.92;109139;1236;60505;-64
2024/03/14 09:38:19;;;;;;;9.60;5.10;;;;;;;7.97;46.62;100843.27;109132;1238;73451;-60
2024/03/14 09:40:59;;;;;;;13.00;5.90;;;;;;;7.92;46.88;100846.59;108597;1234;61852;-56
2024/03/14 09:43:36;;;;;;;11.80;6.10;;;;;;;7.86;47.05;100845.23;108583;1237;62742;-60
2024/03/14 09:46:05;;;;;;;17.30;12.50;;;;;;;7.81;47.09;100841.49;108221;1237;60323;-65
2024/03/14 09:48:35;;;;;;;19.50;8.40;;;;;;;7.79;47.38;100842.46;108238;1235;59655;-61
2024/03/14 09:51:02;;;;;;;11.90;6.00;;;;;;;7.82;47.46;100841.27;107839;1238;64380;-63
2024/03/14 09:53:31;;;;;;;15.90;7.40;;;;;;;7.85;47.84;100839.84;108993;1236;61707;-60
2024/03/14 09:55:58;;;;;;;10.10;5.60;;;;;;;7.91;47.82;100839.48;109284;1238;63857;-61
2024/03/14 09:58:25;;;;;;;10.20;5.90;;;;;;;7.97;47.68;100839.96;108707;1238;59536;-63
2024/03/14 10:00:53;;;;;;;15.80;6.40;;;;;;;8.06;47.72;100839.77;109582;1237;59760;-63
2024/03/14 10:03:20;;;;;;;14.70;11.20;;;;;;;8.16;47.64;100837.43;108556;1241;65266;-61
2024/03/14 10:05:52;;;;;;;11.80;5.90;;;;;;;8.23;47.45;100832.75;107835;1238;61445;-63
2024/03/14 10:08:20;;;;;;;11.20;7.10;;;;;;;8.30;47.47;100838.45;108811;1237;62444;-65
2024/03/14 10:10:47;;;;;;;13.10;6.60;;;;;;;8.39;47.50;100833.02;108072;1235;59758;-65
2024/03/14 10:13:26;;;;;;;12.40;6.80;;;;;;;8.44;47.28;100835.54;108085;1236;59731;-64
2024/03/14 10:16:00;;;;;;;16.50;12.40;;;;;;;8.48;47.07;100836.13;108766;1237;64133;-60
2024/03/14 10:18:29;;;;;;;13.00;6.40;;;;;;;8.55;46.79;100838.84;110688;1236;62613;-63
2024/03/14 10:20:57;;;;;;;15.30;12.50;;;;;;;8.63;46.57;100840.44;107819;1238;64123;-59
2024/03/14 10:23:25;;;;;;;14.00;6.10;;;;;;;8.73;46.40;100835.94;108335;1238;59505;-64
2024/03/14 10:25:53;;;;;;;11.00;5.80;;;;;;;8.82;45.98;100835.71;108565;1235;59600;-64
2024/03/14 10:28:28;;;;;;;16.20;13.00;;;;;;;8.86;45.86;100834.38;107697;1238;65499;-64
2024/03/14 10:30:57;;;;;;;15.50;7.70;;;;;;;8.90;45.88;100834.10;108526;1235;61640;-64
2024/03/14 10:33:26;;;;;;;11.90;6.30;;;;;;;8.98;45.87;100836.71;109100;1236;64039;-65
2024/03/14 10:36:01;;;;;;;14.90;12.00;;;;;;;9.03;45.70;100830.27;109801;1237;59655;-64
2024/03/14 10:38:35;;;;;;;11.00;7.10;;;;;;;9.10;45.50;100824.44;108761;1235;59711;-65
2024/03/14 10:41:05;;;;;;;12.00;5.50;;;;;;;9.15;45.35;100822.67;107895;1241;64476;-63
2024/03/14 10:43:39;;;;;;;14.60;12.10;;;;;;;9.15;45.07;100822.13;108424;1235;62946;-61
2024/03/14 10:46:13;;;;;;;11.20;6.00;;;;;;;9.17;44.83;100820.09;108420;1241;63761;-58
2024/03/14 10:48:45;;;;;;;12.80;7.00;;;;;;;9.20;44.77;100821.81;107918;1238;59571;-55
2024/03/14 10:51:14;;;;;;;16.90;13.80;;;;;;;9.20;44.91;100821.99;107674;1240;59748;-64
2024/03/14 10:53:41;;;;;;;11.30;6.80;;;;;;;9.20;45.21;100820.06;107971;1241;64603;-63
2024/03/14 10:56:16;;;;;;;13.40;6.90;;;;;;;9.21;45.36;100819.66;108376;1234;63279;-61
2024/03/14 10:58:46;;;;;;;15.90;13.40;;;;;;;9.22;45.44;100820.96;108759;1238;64197;-60
2024/03/14 11:01:13;;;;;;;9.80;5.60;;;;;;;9.27;45.29;100818.91;107746;1235;59610;-61
2024/03/14 11:03:41;;;;;;;12.30;6.10;;;;;;;9.26;45.10;100819.10;108090;1237;59649;-61
2024/03/14 11:06:15;;;;;;;16.20;11.90;;;;;;;9.25;44.93;100822.36;107801;1238;64231;-62
2024/03/14 11:08:45;;;;;;;12.20;6.10;;;;;;;9.26;44.82;100825.80;108186;1235;61778;-61
2024/03/14 11:11:13;;;;;;;15.00;13.00;;;;;;;9.26;44.72;100825.23;108472;1233;74204;-62
2024/03/14 11:13:47;;;;;;;10.70;6.00;;;;;;;9.25;44.71;100822.33;108152;1235;59636;-57
2024/03/14 11:16:15;;;;;;;11.10;6.00;;;;;;;9.24;44.91;100825.41;108398;1232;59652;-65
2024/03/14 11:18:42;;;;;;;14.90;12.10;;;;;;;9.25;44.83;100826.90;108162;1233;64498;-63
2024/03/14 11:21:10;;;;;;;13.40;6.10;;;;;;;9.26;44.86;100827.38;109131;1235;62721;-65
2024/03/14 11:23:37;;;;;;;18.50;12.50;;;;;;;9.26;44.92;100827.36;108876;1232;63971;-66
2024/03/14 11:26:07;;;;;;;13.00;5.80;;;;;;;9.26;44.68;100827.55;108427;1237;59665;-66
2024/03/14 11:28:37;;;;;;;16.10;11.70;;;;;;;9.23;44.60;100823.39;108751;1235;59633;-66
2024/03/14 11:31:03;;;;;;;14.80;6.40;;;;;;;9.21;44.57;100823.30;109461;1233;64503;-65
2024/03/14 11:33:32;;;;;;;9.70;4.80;;;;;;;9.21;44.47;100821.23;107969;1237;71602;-64
2024/03/14 11:35:59;;;;;;;16.50;11.00;;;;;;;9.22;44.33;100819.61;109751;1234;65169;-58
2024/03/14 11:38:30;;;;;;;13.30;6.90;;;;;;;9.23;44.39;100819.17;108857;1231;59657;-62
2024/03/14 11:41:02;;;;;;;16.70;11.40;;;;;;;9.25;44.33;100815.34;108896;1232;59626;-65